Airport details for: LGPZ (Greece)

Metar

LGPZ 262350Z 05005KT CAVOK 10/08 Q1018

General details

ICAO: LGPZ
IATA: PVK
Name (city): Aktion
Major:
Country: Greece
vACC: Hellenic vACC
Description:

Aktion National Airport (IATA: PVK, ICAO: LGPZ) is an airport serving Preveza and Lefkada in Greece. It is also known as Lefkada Airport. The airport is also used by NATO and Hellenic Air Force Command.

Scenery links:
FS9 scenery:
FSX/P3D scenery:
XP scenery:
Elevation: 11 ft.
Transition altitude: 8000 ft.
MSA: 9400 ft.
Latitude: 38.925556
Longitude: 20.765
LGPZ Charts
LGPZ Notams
LGPZ Online stations

Runways

Number Course Length Elevation Lat Lon ILS ILS freq ILS FAC GP
07L 65° 9419ft / 2871 m 9ft 38.920714 20.7495 110.9 65° 2.75°
25R 245° 9419ft / 2871 m 11ft 38.929861 20.778611 - - 3.0°